Terminal Aerodrome Forecast
Issued by NWS Wakefield, VA

Home | Current Version | Previous Version | Text Only | Print | Product List | Glossary On
Versions: 1 2 3 4 5 6 7 8 9 10 11 12 13 14 15 16 17 18 19 20 21 22 23
000
FTUS41 KAKQ 180435 AAB
TAFRIC
TAF AMD
KRIC 180435Z 1805/1824 00000KT 3/4SM BR BKN090
     FM180700 VRB03KT 2SM BR BKN100
     FM181000 01003KT 4SM BR BKN040 OVC100
     FM181400 03007KT P6SM SCT100 BKN250=

USA.gov is the U.S. government's official web portal to all federal, state and local government web resources and services.